sensor_id;sensor_type;location;lat;lon;timestamp;temperature;humidity
72940;DHT22;61094;51.154;13.570;2022-09-17T00:00:40;11.90;75.80
72940;DHT22;61094;51.154;13.570;2022-09-17T00:03:08;11.90;73.30
72940;DHT22;61094;51.154;13.570;2022-09-17T00:05:35;11.90;74.90
72940;DHT22;61094;51.154;13.570;2022-09-17T00:08:03;11.90;74.10
72940;DHT22;61094;51.154;13.570;2022-09-17T00:10:30;12.00;74.40
72940;DHT22;61094;51.154;13.570;2022-09-17T00:12:57;12.00;74.30
72940;DHT22;61094;51.154;13.570;2022-09-17T00:15:24;12.00;74.40
72940;DHT22;61094;51.154;13.570;2022-09-17T00:17:54;11.90;75.00
72940;DHT22;61094;51.154;13.570;2022-09-17T00:20:22;12.00;73.60
72940;DHT22;61094;51.154;13.570;2022-09-17T00:22:49;12.00;74.90
72940;DHT22;61094;51.154;13.570;2022-09-17T00:25:16;12.00;75.30
72940;DHT22;61094;51.154;13.570;2022-09-17T00:27:43;11.90;74.90
72940;DHT22;61094;51.154;13.570;2022-09-17T00:30:11;11.90;75.20
72940;DHT22;61094;51.154;13.570;2022-09-17T00:32:38;11.90;76.20
72940;DHT22;61094;51.154;13.570;2022-09-17T00:35:06;11.90;75.00
72940;DHT22;61094;51.154;13.570;2022-09-17T00:37:33;11.90;74.80
72940;DHT22;61094;51.154;13.570;2022-09-17T00:40:21;11.80;75.70
72940;DHT22;61094;51.154;13.570;2022-09-17T00:42:47;11.80;73.60
72940;DHT22;61094;51.154;13.570;2022-09-17T00:45:14;11.90;75.40
72940;DHT22;61094;51.154;13.570;2022-09-17T00:47:43;11.90;75.50
72940;DHT22;61094;51.154;13.570;2022-09-17T00:50:14;11.90;75.40
72940;DHT22;61094;51.154;13.570;2022-09-17T00:52:47;11.90;75.80
72940;DHT22;61094;51.154;13.570;2022-09-17T00:55:19;11.90;74.90
72940;DHT22;61094;51.154;13.570;2022-09-17T00:57:48;11.90;75.20
72940;DHT22;61094;51.154;13.570;2022-09-17T01:00:17;11.90;74.80
72940;DHT22;61094;51.154;13.570;2022-09-17T01:02:44;11.90;74.90
72940;DHT22;61094;51.154;13.570;2022-09-17T01:05:14;11.90;74.20
72940;DHT22;61094;51.154;13.570;2022-09-17T01:07:52;11.90;76.20
72940;DHT22;61094;51.154;13.570;2022-09-17T01:10:35;11.90;75.10
72940;DHT22;61094;51.154;13.570;2022-09-17T01:13:11;11.90;76.30
72940;DHT22;61094;51.154;13.570;2022-09-17T01:15:45;11.80;76.10
72940;DHT22;61094;51.154;13.570;2022-09-17T01:18:31;11.90;76.50
72940;DHT22;61094;51.154;13.570;2022-09-17T01:21:35;11.90;76.20
72940;DHT22;61094;51.154;13.570;2022-09-17T01:27:34;11.90;75.60
72940;DHT22;61094;51.154;13.570;2022-09-17T01:30:15;11.90;76.60
72940;DHT22;61094;51.154;13.570;2022-09-17T01:32:49;11.90;75.50
72940;DHT22;61094;51.154;13.570;2022-09-17T01:35:20;11.90;75.60
72940;DHT22;61094;51.154;13.570;2022-09-17T01:38:00;11.90;76.60
72940;DHT22;61094;51.154;13.570;2022-09-17T01:40:34;11.90;75.10
72940;DHT22;61094;51.154;13.570;2022-09-17T01:43:07;11.90;76.30
72940;DHT22;61094;51.154;13.570;2022-09-17T01:45:38;11.90;76.30
72940;DHT22;61094;51.154;13.570;2022-09-17T01:48:10;11.90;74.00
72940;DHT22;61094;51.154;13.570;2022-09-17T01:50:41;11.90;76.10
72940;DHT22;61094;51.154;13.570;2022-09-17T01:53:10;11.90;76.40
72940;DHT22;61094;51.154;13.570;2022-09-17T01:55:39;11.90;76.40
72940;DHT22;61094;51.154;13.570;2022-09-17T01:58:12;11.90;76.00
72940;DHT22;61094;51.154;13.570;2022-09-17T02:00:43;11.90;76.00
72940;DHT22;61094;51.154;13.570;2022-09-17T02:03:17;11.90;76.00
72940;DHT22;61094;51.154;13.570;2022-09-17T02:05:48;11.90;76.60
72940;DHT22;61094;51.154;13.570;2022-09-17T02:08:19;11.90;76.90
72940;DHT22;61094;51.154;13.570;2022-09-17T02:10:50;11.90;75.80
72940;DHT22;61094;51.154;13.570;2022-09-17T02:13:20;11.90;76.80
72940;DHT22;61094;51.154;13.570;2022-09-17T02:15:51;11.90;77.00
72940;DHT22;61094;51.154;13.570;2022-09-17T02:18:25;11.90;75.20
72940;DHT22;61094;51.154;13.570;2022-09-17T02:20:56;11.90;75.80
72940;DHT22;61094;51.154;13.570;2022-09-17T02:23:30;11.90;77.00
72940;DHT22;61094;51.154;13.570;2022-09-17T02:26:04;11.90;76.90
72940;DHT22;61094;51.154;13.570;2022-09-17T02:28:38;11.90;77.00
72940;DHT22;61094;51.154;13.570;2022-09-17T02:31:06;11.90;76.40
72940;DHT22;61094;51.154;13.570;2022-09-17T02:33:34;11.80;77.40
72940;DHT22;61094;51.154;13.570;2022-09-17T02:36:03;11.90;76.20
72940;DHT22;61094;51.154;13.570;2022-09-17T02:38:29;11.90;76.40
72940;DHT22;61094;51.154;13.570;2022-09-17T02:41:03;11.90;77.20
72940;DHT22;61094;51.154;13.570;2022-09-17T02:43:37;11.80;77.50
72940;DHT22;61094;51.154;13.570;2022-09-17T02:46:18;11.80;77.60
72940;DHT22;61094;51.154;13.570;2022-09-17T02:49:06;11.80;76.90
72940;DHT22;61094;51.154;13.570;2022-09-17T02:51:42;11.80;76.80
72940;DHT22;61094;51.154;13.570;2022-09-17T02:54:19;11.80;77.20
72940;DHT22;61094;51.154;13.570;2022-09-17T02:56:57;11.90;77.10
72940;DHT22;61094;51.154;13.570;2022-09-17T02:59:29;11.90;77.80
72940;DHT22;61094;51.154;13.570;2022-09-17T03:02:00;11.80;77.90
72940;DHT22;61094;51.154;13.570;2022-09-17T03:04:30;11.90;78.10
72940;DHT22;61094;51.154;13.570;2022-09-17T03:06:57;11.80;76.70
72940;DHT22;61094;51.154;13.570;2022-09-17T03:09:24;11.80;77.40
72940;DHT22;61094;51.154;13.570;2022-09-17T03:11:51;11.80;75.10
72940;DHT22;61094;51.154;13.570;2022-09-17T03:14:17;11.90;77.40
72940;DHT22;61094;51.154;13.570;2022-09-17T03:16:45;11.80;77.40
72940;DHT22;61094;51.154;13.570;2022-09-17T03:19:11;11.90;77.20
72940;DHT22;61094;51.154;13.570;2022-09-17T03:21:39;11.80;76.80
72940;DHT22;61094;51.154;13.570;2022-09-17T03:24:06;11.90;77.00
72940;DHT22;61094;51.154;13.570;2022-09-17T03:26:33;11.90;77.70
72940;DHT22;61094;51.154;13.570;2022-09-17T03:28:59;11.80;77.40
72940;DHT22;61094;51.154;13.570;2022-09-17T03:31:26;11.90;77.50
72940;DHT22;61094;51.154;13.570;2022-09-17T03:33:53;11.90;77.90
72940;DHT22;61094;51.154;13.570;2022-09-17T03:36:20;11.90;76.60
72940;DHT22;61094;51.154;13.570;2022-09-17T03:38:48;11.90;77.80
72940;DHT22;61094;51.154;13.570;2022-09-17T03:41:14;11.90;77.80
72940;DHT22;61094;51.154;13.570;2022-09-17T03:43:41;11.90;77.30
72940;DHT22;61094;51.154;13.570;2022-09-17T03:46:08;11.90;77.00
72940;DHT22;61094;51.154;13.570;2022-09-17T03:48:34;11.90;75.40
72940;DHT22;61094;51.154;13.570;2022-09-17T03:51:02;11.90;78.00
72940;DHT22;61094;51.154;13.570;2022-09-17T03:53:28;11.90;78.00
72940;DHT22;61094;51.154;13.570;2022-09-17T03:55:58;11.80;77.70
72940;DHT22;61094;51.154;13.570;2022-09-17T03:58:25;11.90;76.60
72940;DHT22;61094;51.154;13.570;2022-09-17T04:00:51;11.90;77.40
72940;DHT22;61094;51.154;13.570;2022-09-17T04:03:20;11.80;78.10
72940;DHT22;61094;51.154;13.570;2022-09-17T04:05:46;11.90;78.20
72940;DHT22;61094;51.154;13.570;2022-09-17T04:08:13;11.80;77.60
72940;DHT22;61094;51.154;13.570;2022-09-17T04:10:39;11.80;77.80
72940;DHT22;61094;51.154;13.570;2022-09-17T04:13:08;11.80;78.50
72940;DHT22;61094;51.154;13.570;2022-09-17T04:15:34;11.80;77.60
72940;DHT22;61094;51.154;13.570;2022-09-17T04:18:01;11.80;77.90
72940;DHT22;61094;51.154;13.570;2022-09-17T04:20:28;11.80;77.90
72940;DHT22;61094;51.154;13.570;2022-09-17T04:22:55;11.80;78.30
72940;DHT22;61094;51.154;13.570;2022-09-17T04:25:22;11.70;78.30
72940;DHT22;61094;51.154;13.570;2022-09-17T04:27:51;11.70;79.30
72940;DHT22;61094;51.154;13.570;2022-09-17T04:30:22;11.70;79.30
72940;DHT22;61094;51.154;13.570;2022-09-17T04:32:48;11.70;78.60
72940;DHT22;61094;51.154;13.570;2022-09-17T04:35:15;11.70;79.80
72940;DHT22;61094;51.154;13.570;2022-09-17T04:37:42;11.60;79.80
72940;DHT22;61094;51.154;13.570;2022-09-17T04:40:09;11.60;78.80
72940;DHT22;61094;51.154;13.570;2022-09-17T04:42:36;11.60;79.80
72940;DHT22;61094;51.154;13.570;2022-09-17T04:45:03;11.60;80.20
72940;DHT22;61094;51.154;13.570;2022-09-17T04:47:31;11.60;80.40
72940;DHT22;61094;51.154;13.570;2022-09-17T04:49:57;11.50;80.40
72940;DHT22;61094;51.154;13.570;2022-09-17T04:52:24;11.50;80.20
72940;DHT22;61094;51.154;13.570;2022-09-17T04:54:51;11.50;80.80
72940;DHT22;61094;51.154;13.570;2022-09-17T04:57:17;11.50;81.20
72940;DHT22;61094;51.154;13.570;2022-09-17T04:59:44;11.50;81.20
72940;DHT22;61094;51.154;13.570;2022-09-17T05:02:10;11.50;81.40
72940;DHT22;61094;51.154;13.570;2022-09-17T05:04:38;11.40;81.50
72940;DHT22;61094;51.154;13.570;2022-09-17T05:07:05;11.40;81.70
72940;DHT22;61094;51.154;13.570;2022-09-17T05:09:31;11.40;81.90
72940;DHT22;61094;51.154;13.570;2022-09-17T05:11:58;11.40;81.90
72940;DHT22;61094;51.154;13.570;2022-09-17T05:14:24;11.30;82.00
72940;DHT22;61094;51.154;13.570;2022-09-17T05:16:51;11.30;82.10
72940;DHT22;61094;51.154;13.570;2022-09-17T05:19:18;11.30;82.30
72940;DHT22;61094;51.154;13.570;2022-09-17T05:21:45;11.30;82.50
72940;DHT22;61094;51.154;13.570;2022-09-17T05:24:13;11.30;82.60
72940;DHT22;61094;51.154;13.570;2022-09-17T05:26:40;11.30;83.60
72940;DHT22;61094;51.154;13.570;2022-09-17T05:29:06;11.30;83.00
72940;DHT22;61094;51.154;13.570;2022-09-17T05:31:33;11.30;83.10
72940;DHT22;61094;51.154;13.570;2022-09-17T05:33:59;11.30;83.20
72940;DHT22;61094;51.154;13.570;2022-09-17T05:36:26;11.30;83.30
72940;DHT22;61094;51.154;13.570;2022-09-17T05:38:54;11.30;83.40
72940;DHT22;61094;51.154;13.570;2022-09-17T05:41:20;11.30;83.40
72940;DHT22;61094;51.154;13.570;2022-09-17T05:43:47;11.30;83.50
72940;DHT22;61094;51.154;13.570;2022-09-17T05:46:13;11.30;83.50
72940;DHT22;61094;51.154;13.570;2022-09-17T05:48:40;11.30;83.70
72940;DHT22;61094;51.154;13.570;2022-09-17T05:51:07;11.30;83.70
72940;DHT22;61094;51.154;13.570;2022-09-17T05:53:34;11.40;83.80
72940;DHT22;61094;51.154;13.570;2022-09-17T05:56:02;11.40;83.90
72940;DHT22;61094;51.154;13.570;2022-09-17T05:58:29;11.40;83.90
72940;DHT22;61094;51.154;13.570;2022-09-17T06:00:59;11.40;84.00
72940;DHT22;61094;51.154;13.570;2022-09-17T06:03:26;11.40;84.10
72940;DHT22;61094;51.154;13.570;2022-09-17T06:05:54;11.50;84.20
72940;DHT22;61094;51.154;13.570;2022-09-17T06:08:22;11.50;84.40
72940;DHT22;61094;51.154;13.570;2022-09-17T06:10:49;11.50;84.50
72940;DHT22;61094;51.154;13.570;2022-09-17T06:13:18;11.50;84.50
72940;DHT22;61094;51.154;13.570;2022-09-17T06:15:48;11.50;84.60
72940;DHT22;61094;51.154;13.570;2022-09-17T06:18:16;11.50;84.70
72940;DHT22;61094;51.154;13.570;2022-09-17T06:20:43;11.50;84.70
72940;DHT22;61094;51.154;13.570;2022-09-17T06:23:17;11.50;84.70
72940;DHT22;61094;51.154;13.570;2022-09-17T06:25:49;11.60;84.80
72940;DHT22;61094;51.154;13.570;2022-09-17T06:28:18;11.60;84.70
72940;DHT22;61094;51.154;13.570;2022-09-17T06:30:44;11.60;84.80
72940;DHT22;61094;51.154;13.570;2022-09-17T06:33:11;11.70;85.00
72940;DHT22;61094;51.154;13.570;2022-09-17T06:35:37;11.60;84.80
72940;DHT22;61094;51.154;13.570;2022-09-17T06:38:04;11.60;85.50
72940;DHT22;61094;51.154;13.570;2022-09-17T06:40:31;11.60;85.10
72940;DHT22;61094;51.154;13.570;2022-09-17T06:42:58;11.60;85.60
72940;DHT22;61094;51.154;13.570;2022-09-17T06:45:26;11.60;85.70
72940;DHT22;61094;51.154;13.570;2022-09-17T06:47:53;11.50;86.20
72940;DHT22;61094;51.154;13.570;2022-09-17T06:50:19;11.50;86.00
72940;DHT22;61094;51.154;13.570;2022-09-17T06:52:49;11.40;86.40
72940;DHT22;61094;51.154;13.570;2022-09-17T06:55:16;11.40;87.40
72940;DHT22;61094;51.154;13.570;2022-09-17T06:57:42;11.40;86.80
72940;DHT22;61094;51.154;13.570;2022-09-17T07:00:11;11.30;87.20
72940;DHT22;61094;51.154;13.570;2022-09-17T07:02:39;11.30;87.80
72940;DHT22;61094;51.154;13.570;2022-09-17T07:05:06;11.20;87.90
72940;DHT22;61094;51.154;13.570;2022-09-17T07:07:33;11.20;88.00
72940;DHT22;61094;51.154;13.570;2022-09-17T07:10:00;11.10;88.00
72940;DHT22;61094;51.154;13.570;2022-09-17T07:12:27;11.10;88.20
72940;DHT22;61094;51.154;13.570;2022-09-17T07:14:53;11.10;88.30
72940;DHT22;61094;51.154;13.570;2022-09-17T07:17:20;11.10;88.80
72940;DHT22;61094;51.154;13.570;2022-09-17T07:19:48;11.10;89.80
72940;DHT22;61094;51.154;13.570;2022-09-17T07:22:15;11.20;89.30
72940;DHT22;61094;51.154;13.570;2022-09-17T07:24:42;11.20;89.40
72940;DHT22;61094;51.154;13.570;2022-09-17T07:27:09;11.20;90.00
72940;DHT22;61094;51.154;13.570;2022-09-17T07:29:36;11.30;90.40
72940;DHT22;61094;51.154;13.570;2022-09-17T07:32:02;11.30;90.00
72940;DHT22;61094;51.154;13.570;2022-09-17T07:34:29;11.40;90.40
72940;DHT22;61094;51.154;13.570;2022-09-17T07:36:57;11.50;90.00
72940;DHT22;61094;51.154;13.570;2022-09-17T07:39:23;11.50;90.30
72940;DHT22;61094;51.154;13.570;2022-09-17T07:41:50;11.60;90.20
72940;DHT22;61094;51.154;13.570;2022-09-17T07:44:16;11.70;90.10
72940;DHT22;61094;51.154;13.570;2022-09-17T07:46:43;11.80;90.00
72940;DHT22;61094;51.154;13.570;2022-09-17T07:49:09;11.90;90.10
72940;DHT22;61094;51.154;13.570;2022-09-17T07:51:36;11.90;90.10
72940;DHT22;61094;51.154;13.570;2022-09-17T07:54:04;12.00;89.70
72940;DHT22;61094;51.154;13.570;2022-09-17T07:56:31;12.00;89.60
72940;DHT22;61094;51.154;13.570;2022-09-17T07:59:00;12.10;89.50
72940;DHT22;61094;51.154;13.570;2022-09-17T08:01:27;12.10;89.40
72940;DHT22;61094;51.154;13.570;2022-09-17T08:03:54;12.10;89.30
72940;DHT22;61094;51.154;13.570;2022-09-17T08:06:23;12.10;89.30
72940;DHT22;61094;51.154;13.570;2022-09-17T08:08:50;12.10;89.00
72940;DHT22;61094;51.154;13.570;2022-09-17T08:11:19;12.20;89.30
72940;DHT22;61094;51.154;13.570;2022-09-17T08:13:46;12.20;89.20
72940;DHT22;61094;51.154;13.570;2022-09-17T08:16:13;12.30;89.20
72940;DHT22;61094;51.154;13.570;2022-09-17T08:18:40;12.40;89.00
72940;DHT22;61094;51.154;13.570;2022-09-17T08:21:09;12.50;87.50
72940;DHT22;61094;51.154;13.570;2022-09-17T08:23:37;12.60;88.50
72940;DHT22;61094;51.154;13.570;2022-09-17T08:26:05;12.60;85.80
72940;DHT22;61094;51.154;13.570;2022-09-17T08:28:34;12.70;87.70
72940;DHT22;61094;51.154;13.570;2022-09-17T08:31:03;12.80;87.30
72940;DHT22;61094;51.154;13.570;2022-09-17T08:33:30;12.90;86.30
72940;DHT22;61094;51.154;13.570;2022-09-17T08:35:57;13.00;86.00
72940;DHT22;61094;51.154;13.570;2022-09-17T08:38:25;13.00;85.10
72940;DHT22;61094;51.154;13.570;2022-09-17T08:40:59;13.20;84.20
72940;DHT22;61094;51.154;13.570;2022-09-17T08:43:31;13.30;86.40
72940;DHT22;61094;51.154;13.570;2022-09-17T08:46:00;13.30;84.90
72940;DHT22;61094;51.154;13.570;2022-09-17T08:48:35;13.40;85.10
72940;DHT22;61094;51.154;13.570;2022-09-17T08:51:07;13.50;85.00
72940;DHT22;61094;51.154;13.570;2022-09-17T08:53:43;13.50;86.20
72940;DHT22;61094;51.154;13.570;2022-09-17T08:56:18;13.50;84.90
72940;DHT22;61094;51.154;13.570;2022-09-17T08:58:58;13.50;84.10
72940;DHT22;61094;51.154;13.570;2022-09-17T09:01:40;13.60;83.60
72940;DHT22;61094;51.154;13.570;2022-09-17T09:07:18;13.70;84.60
72940;DHT22;61094;51.154;13.570;2022-09-17T09:09:50;13.90;82.80
72940;DHT22;61094;51.154;13.570;2022-09-17T09:12:23;14.00;82.90
72940;DHT22;61094;51.154;13.570;2022-09-17T09:14:54;14.10;78.50
72940;DHT22;61094;51.154;13.570;2022-09-17T09:17:28;14.20;82.40
72940;DHT22;61094;51.154;13.570;2022-09-17T09:20:00;14.30;81.20
72940;DHT22;61094;51.154;13.570;2022-09-17T09:22:39;14.50;82.20
72940;DHT22;61094;51.154;13.570;2022-09-17T09:25:19;14.70;81.30
72940;DHT22;61094;51.154;13.570;2022-09-17T09:28:06;14.90;79.10
72940;DHT22;61094;51.154;13.570;2022-09-17T09:30:45;15.00;80.50
72940;DHT22;61094;51.154;13.570;2022-09-17T09:33:25;15.10;79.20
72940;DHT22;61094;51.154;13.570;2022-09-17T09:35:53;15.20;81.00
72940;DHT22;61094;51.154;13.570;2022-09-17T09:38:28;15.10;80.40
72940;DHT22;61094;51.154;13.570;2022-09-17T09:41:01;14.90;78.80
72940;DHT22;61094;51.154;13.570;2022-09-17T09:43:38;14.80;80.70
72940;DHT22;61094;51.154;13.570;2022-09-17T09:46:27;14.70;81.10
72940;DHT22;61094;51.154;13.570;2022-09-17T09:49:05;14.80;76.20
72940;DHT22;61094;51.154;13.570;2022-09-17T09:51:40;15.40;81.60
72940;DHT22;61094;51.154;13.570;2022-09-17T09:54:21;15.80;80.60
72940;DHT22;61094;51.154;13.570;2022-09-17T09:56:54;15.90;79.50
72940;DHT22;61094;51.154;13.570;2022-09-17T09:59:22;15.80;80.50
72940;DHT22;61094;51.154;13.570;2022-09-17T10:01:49;15.70;80.50
72940;DHT22;61094;51.154;13.570;2022-09-17T10:04:19;15.70;74.30
72940;DHT22;61094;51.154;13.570;2022-09-17T10:06:49;15.50;80.40
72940;DHT22;61094;51.154;13.570;2022-09-17T10:09:17;15.20;79.80
72940;DHT22;61094;51.154;13.570;2022-09-17T10:12:03;15.00;78.80
72940;DHT22;61094;51.154;13.570;2022-09-17T10:14:32;14.80;81.50
72940;DHT22;61094;51.154;13.570;2022-09-17T10:17:18;14.70;77.90
72940;DHT22;61094;51.154;13.570;2022-09-17T10:20:11;14.90;82.10
72940;DHT22;61094;51.154;13.570;2022-09-17T10:22:39;15.40;83.20
72940;DHT22;61094;51.154;13.570;2022-09-17T10:25:27;16.10;81.80
72940;DHT22;61094;51.154;13.570;2022-09-17T10:27:55;16.80;73.80
72940;DHT22;61094;51.154;13.570;2022-09-17T10:30:22;17.40;81.50
72940;DHT22;61094;51.154;13.570;2022-09-17T10:33:14;17.80;78.80
72940;DHT22;61094;51.154;13.570;2022-09-17T10:35:54;17.90;74.30
72940;DHT22;61094;51.154;13.570;2022-09-17T10:38:27;17.80;78.40
72940;DHT22;61094;51.154;13.570;2022-09-17T10:41:09;17.40;79.00
72940;DHT22;61094;51.154;13.570;2022-09-17T10:43:36;17.20;69.50
72940;DHT22;61094;51.154;13.570;2022-09-17T10:46:04;17.30;79.60
72940;DHT22;61094;51.154;13.570;2022-09-17T10:48:37;17.30;78.60
72940;DHT22;61094;51.154;13.570;2022-09-17T10:51:09;17.30;72.40
72940;DHT22;61094;51.154;13.570;2022-09-17T10:54:01;17.20;75.60
72940;DHT22;61094;51.154;13.570;2022-09-17T10:56:33;17.20;78.80
72940;DHT22;61094;51.154;13.570;2022-09-17T10:59:24;17.30;70.00
72940;DHT22;61094;51.154;13.570;2022-09-17T11:02:06;17.80;71.40
72940;DHT22;61094;51.154;13.570;2022-09-17T11:04:47;18.10;74.50
72940;DHT22;61094;51.154;13.570;2022-09-17T11:07:38;18.30;74.90
72940;DHT22;61094;51.154;13.570;2022-09-17T11:10:13;18.50;68.30
72940;DHT22;61094;51.154;13.570;2022-09-17T11:13:03;18.50;74.80
72940;DHT22;61094;51.154;13.570;2022-09-17T11:15:40;18.20;73.30
72940;DHT22;61094;51.154;13.570;2022-09-17T11:18:31;17.90;72.80
72940;DHT22;61094;51.154;13.570;2022-09-17T11:21:29;17.70;69.60
72940;DHT22;61094;51.154;13.570;2022-09-17T11:24:26;17.50;69.10
72940;DHT22;61094;51.154;13.570;2022-09-17T11:27:03;17.30;65.30
72940;DHT22;61094;51.154;13.570;2022-09-17T11:29:42;17.00;65.20
72940;DHT22;61094;51.154;13.570;2022-09-17T11:32:31;16.50;73.00
72940;DHT22;61094;51.154;13.570;2022-09-17T11:35:02;15.80;75.30
72940;DHT22;61094;51.154;13.570;2022-09-17T11:37:37;15.20;78.60
72940;DHT22;61094;51.154;13.570;2022-09-17T11:40:12;14.70;79.40
72940;DHT22;61094;51.154;13.570;2022-09-17T11:42:43;14.30;81.10
72940;DHT22;61094;51.154;13.570;2022-09-17T11:45:15;14.00;81.20
72940;DHT22;61094;51.154;13.570;2022-09-17T11:47:46;13.80;83.60
72940;DHT22;61094;51.154;13.570;2022-09-17T11:50:19;13.60;85.10
72940;DHT22;61094;51.154;13.570;2022-09-17T11:52:59;13.70;86.60
72940;DHT22;61094;51.154;13.570;2022-09-17T11:55:31;13.90;87.00
72940;DHT22;61094;51.154;13.570;2022-09-17T11:58:01;14.20;87.10
72940;DHT22;61094;51.154;13.570;2022-09-17T12:00:33;14.50;85.30
72940;DHT22;61094;51.154;13.570;2022-09-17T12:03:07;14.70;85.90
72940;DHT22;61094;51.154;13.570;2022-09-17T12:05:39;14.70;85.10
72940;DHT22;61094;51.154;13.570;2022-09-17T12:08:12;14.70;84.10
72940;DHT22;61094;51.154;13.570;2022-09-17T12:10:47;14.50;84.50
72940;DHT22;61094;51.154;13.570;2022-09-17T12:13:25;14.20;85.40
72940;DHT22;61094;51.154;13.570;2022-09-17T12:16:06;13.80;86.30
72940;DHT22;61094;51.154;13.570;2022-09-17T12:18:52;13.60;86.90
72940;DHT22;61094;51.154;13.570;2022-09-17T12:21:24;13.30;87.60
72940;DHT22;61094;51.154;13.570;2022-09-17T12:23:56;13.10;89.10
72940;DHT22;61094;51.154;13.570;2022-09-17T12:26:33;13.00;89.60
72940;DHT22;61094;51.154;13.570;2022-09-17T12:29:10;12.90;89.80
72940;DHT22;61094;51.154;13.570;2022-09-17T12:31:43;13.00;90.30
72940;DHT22;61094;51.154;13.570;2022-09-17T12:34:25;13.20;90.40
72940;DHT22;61094;51.154;13.570;2022-09-17T12:37:03;13.30;90.00
72940;DHT22;61094;51.154;13.570;2022-09-17T12:39:41;13.70;90.30
72940;DHT22;61094;51.154;13.570;2022-09-17T12:42:20;14.10;87.60
72940;DHT22;61094;51.154;13.570;2022-09-17T12:47:56;15.10;86.20
72940;DHT22;61094;51.154;13.570;2022-09-17T12:50:33;15.50;85.00
72940;DHT22;61094;51.154;13.570;2022-09-17T12:53:13;15.80;80.90
72940;DHT22;61094;51.154;13.570;2022-09-17T12:56:04;15.90;82.80
72940;DHT22;61094;51.154;13.570;2022-09-17T12:58:48;15.90;80.10
72940;DHT22;61094;51.154;13.570;2022-09-17T13:01:21;15.70;80.40
72940;DHT22;61094;51.154;13.570;2022-09-17T13:03:54;15.60;78.10
72940;DHT22;61094;51.154;13.570;2022-09-17T13:06:56;15.50;80.70
72940;DHT22;61094;51.154;13.570;2022-09-17T13:09:53;15.20;77.90
72940;DHT22;61094;51.154;13.570;2022-09-17T13:12:31;14.80;74.80
72940;DHT22;61094;51.154;13.570;2022-09-17T13:15:19;14.50;81.60
72940;DHT22;61094;51.154;13.570;2022-09-17T13:17:52;14.20;80.40
72940;DHT22;61094;51.154;13.570;2022-09-17T13:20:25;13.80;81.80
72940;DHT22;61094;51.154;13.570;2022-09-17T13:22:55;13.50;80.40
72940;DHT22;61094;51.154;13.570;2022-09-17T13:25:23;13.30;85.30
72940;DHT22;61094;51.154;13.570;2022-09-17T13:28:04;13.20;85.70
72940;DHT22;61094;51.154;13.570;2022-09-17T13:30:54;13.10;83.10
72940;DHT22;61094;51.154;13.570;2022-09-17T13:33:46;13.10;85.80
72940;DHT22;61094;51.154;13.570;2022-09-17T13:36:42;13.20;82.80
72940;DHT22;61094;51.154;13.570;2022-09-17T13:41:59;13.70;85.80
72940;DHT22;61094;51.154;13.570;2022-09-17T13:44:28;13.90;85.80
72940;DHT22;61094;51.154;13.570;2022-09-17T13:47:11;14.20;85.20
72940;DHT22;61094;51.154;13.570;2022-09-17T13:49:47;14.60;83.20
72940;DHT22;61094;51.154;13.570;2022-09-17T13:52:29;14.90;83.20
72940;DHT22;61094;51.154;13.570;2022-09-17T13:54:56;15.30;80.80
72940;DHT22;61094;51.154;13.570;2022-09-17T13:57:24;15.50;80.90
72940;DHT22;61094;51.154;13.570;2022-09-17T13:59:54;15.70;80.20
72940;DHT22;61094;51.154;13.570;2022-09-17T14:02:33;15.80;78.40
72940;DHT22;61094;51.154;13.570;2022-09-17T14:05:34;16.00;78.00
72940;DHT22;61094;51.154;13.570;2022-09-17T14:11:00;16.40;75.90
72940;DHT22;61094;51.154;13.570;2022-09-17T14:13:51;16.30;76.20
72940;DHT22;61094;51.154;13.570;2022-09-17T14:16:32;16.20;73.90
72940;DHT22;61094;51.154;13.570;2022-09-17T14:22:07;15.90;78.30
72940;DHT22;61094;51.154;13.570;2022-09-17T14:24:45;15.90;77.80
72940;DHT22;61094;51.154;13.570;2022-09-17T14:27:28;15.70;75.50
72940;DHT22;61094;51.154;13.570;2022-09-17T14:30:09;15.60;78.60
72940;DHT22;61094;51.154;13.570;2022-09-17T14:32:40;15.50;78.30
72940;DHT22;61094;51.154;13.570;2022-09-17T14:35:21;15.50;77.90
72940;DHT22;61094;51.154;13.570;2022-09-17T14:37:54;15.50;79.30
72940;DHT22;61094;51.154;13.570;2022-09-17T14:40:22;15.60;78.90
72940;DHT22;61094;51.154;13.570;2022-09-17T14:42:52;15.60;78.60
72940;DHT22;61094;51.154;13.570;2022-09-17T14:45:25;15.50;69.40
72940;DHT22;61094;51.154;13.570;2022-09-17T14:48:18;15.50;70.60
72940;DHT22;61094;51.154;13.570;2022-09-17T14:50:46;15.30;73.40
72940;DHT22;61094;51.154;13.570;2022-09-17T14:53:15;15.10;77.60
72940;DHT22;61094;51.154;13.570;2022-09-17T14:55:43;14.90;77.00
72940;DHT22;61094;51.154;13.570;2022-09-17T14:58:26;14.70;78.40
72940;DHT22;61094;51.154;13.570;2022-09-17T15:00:54;14.60;69.60
72940;DHT22;61094;51.154;13.570;2022-09-17T15:03:22;14.50;75.10
72940;DHT22;61094;51.154;13.570;2022-09-17T15:05:50;14.60;80.40
72940;DHT22;61094;51.154;13.570;2022-09-17T15:08:19;14.80;79.60
72940;DHT22;61094;51.154;13.570;2022-09-17T15:10:48;14.90;77.60
72940;DHT22;61094;51.154;13.570;2022-09-17T15:13:18;15.00;80.50
72940;DHT22;61094;51.154;13.570;2022-09-17T15:16:00;15.10;80.80
72940;DHT22;61094;51.154;13.570;2022-09-17T15:18:39;15.10;79.50
72940;DHT22;61094;51.154;13.570;2022-09-17T15:21:17;15.00;79.40
72940;DHT22;61094;51.154;13.570;2022-09-17T15:23:48;15.00;80.10
72940;DHT22;61094;51.154;13.570;2022-09-17T15:26:21;15.00;80.00
72940;DHT22;61094;51.154;13.570;2022-09-17T15:28:48;15.00;76.10
72940;DHT22;61094;51.154;13.570;2022-09-17T15:31:17;15.10;78.90
72940;DHT22;61094;51.154;13.570;2022-09-17T15:33:44;15.10;74.10
72940;DHT22;61094;51.154;13.570;2022-09-17T15:36:18;15.00;77.70
72940;DHT22;61094;51.154;13.570;2022-09-17T15:38:45;14.90;69.20
72940;DHT22;61094;51.154;13.570;2022-09-17T15:41:26;14.80;72.30
72940;DHT22;61094;51.154;13.570;2022-09-17T15:43:53;14.80;74.80
72940;DHT22;61094;51.154;13.570;2022-09-17T15:46:23;14.80;77.00
72940;DHT22;61094;51.154;13.570;2022-09-17T15:48:51;14.90;74.50
72940;DHT22;61094;51.154;13.570;2022-09-17T15:51:24;15.00;77.60
72940;DHT22;61094;51.154;13.570;2022-09-17T15:53:53;15.20;78.30
72940;DHT22;61094;51.154;13.570;2022-09-17T15:56:22;15.30;75.70
72940;DHT22;61094;51.154;13.570;2022-09-17T15:58:58;15.50;75.10
72940;DHT22;61094;51.154;13.570;2022-09-17T16:04:23;15.50;74.10
72940;DHT22;61094;51.154;13.570;2022-09-17T16:06:59;15.40;75.40